Time;durP1;ratioP1;P1;durP2;ratioP2;P2;SDS_P1;SDS_P2;PMS_P1;PMS_P2;Temp;Humidity;BMP_temperature;BMP_pressure;BME280_temperature;BME280_humidity;BME280_pressure;Samples;Min_cycle;Max_cycle;Signal;HPM_P1;HPM_P2
2022/02/10 00:21:48;;;;;;;8.90;5.85;;;;;;;;;;4999719;28;20040;-76
2022/02/10 00:35:25;;;;;;;7.50;5.55;;;;;;;;;;5037640;28;20107;-76
2022/02/10 00:37:57;;;;;;;12.30;5.93;;;;;;;;;;5023194;28;20048;-76
2022/02/10 00:40:25;;;;;;;6.55;5.25;;;;;;;;;;5005057;28;20044;-76
2022/02/10 00:42:50;;;;;;;7.22;5.10;;;;;;;;;;5018716;28;20041;-76
2022/02/10 00:45:16;;;;;;;8.18;5.03;;;;;;;;;;5018994;28;20419;-76
2022/02/10 00:47:56;;;;;;;7.13;4.80;;;;;;;;;;5002630;28;20043;-76
2022/02/10 00:50:23;;;;;;;7.25;4.80;;;;;;;;;;5003828;28;20032;-76
2022/02/10 00:52:52;;;;;;;7.43;5.22;;;;;;;;;;5019195;28;20126;-76
2022/02/10 00:55:23;;;;;;;7.10;5.20;;;;;;;;;;5019196;28;20507;-76
2022/02/10 00:57:49;;;;;;;9.02;5.63;;;;;;;;;;5020183;28;20040;-76
2022/02/10 01:13:58;;;;;;;7.82;6.03;;;;;;;;;;5031743;28;20053;-76
2022/02/10 01:29:35;;;;;;;5.85;5.18;;;;;;;;;;5031379;28;20407;-76
2022/02/10 01:30:07;;;;;;;6.80;5.55;;;;;;;;;;5023527;28;20037;-76
2022/02/10 01:32:34;;;;;;;7.07;5.00;;;;;;;;;;5017931;28;20031;-77
2022/02/10 01:34:59;;;;;;;5.45;4.93;;;;;;;;;;5017049;28;20029;-76
2022/02/10 01:37:25;;;;;;;6.82;5.50;;;;;;;;;;5002882;28;20037;-76
2022/02/10 01:40:01;;;;;;;7.20;4.95;;;;;;;;;;5030942;28;20037;-76
2022/02/10 02:04:21;;;;;;;7.47;4.65;;;;;;;;;;5044043;28;20036;-76
2022/02/10 02:06:47;;;;;;;7.05;4.70;;;;;;;;;;5013990;28;20372;-76
2022/02/10 02:09:15;;;;;;;6.68;4.82;;;;;;;;;;5015758;28;20061;-76
2022/02/10 02:11:46;;;;;;;7.07;4.70;;;;;;;;;;4997173;28;20045;-76
2022/02/10 02:14:14;;;;;;;7.65;5.15;;;;;;;;;;4965418;28;20038;-76
2022/02/10 02:16:53;;;;;;;6.80;4.95;;;;;;;;;;4998105;28;20038;-76
2022/02/10 02:19:19;;;;;;;7.03;5.05;;;;;;;;;;4998708;28;20053;-76
2022/02/10 02:21:45;;;;;;;7.00;4.68;;;;;;;;;;5013937;28;20065;-76
2022/02/10 02:24:13;;;;;;;7.50;5.03;;;;;;;;;;4981195;28;20026;-76
2022/02/10 02:26:40;;;;;;;6.57;4.68;;;;;;;;;;4998965;28;20128;-76
2022/02/10 02:29:08;;;;;;;5.75;4.60;;;;;;;;;;5017716;28;20037;-76
2022/02/10 02:31:41;;;;;;;6.50;4.47;;;;;;;;;;5017829;28;20040;-76
2022/02/10 03:06:33;;;;;;;6.88;4.22;;;;;;;;;;5019812;28;20033;-76
2022/02/10 03:09:04;;;;;;;7.05;4.70;;;;;;;;;;5010950;28;20073;-76
2022/02/10 03:11:30;;;;;;;5.53;4.30;;;;;;;;;;5002282;28;20065;-76
2022/02/10 03:14:09;;;;;;;5.28;3.67;;;;;;;;;;5001085;28;20046;-76
2022/02/10 03:19:34;;;;;;;5.32;4.10;;;;;;;;;;5044980;28;20110;-76
2022/02/10 04:05:52;;;;;;;6.43;5.05;;;;;;;;;;5020420;28;20541;-76
2022/02/10 04:11:06;;;;;;;6.03;4.95;;;;;;;;;;5031818;28;20112;-76
2022/02/10 04:13:45;;;;;;;5.60;3.95;;;;;;;;;;5043351;28;20062;-76
2022/02/10 04:16:16;;;;;;;6.35;3.90;;;;;;;;;;5021264;28;20032;-76
2022/02/10 04:21:57;;;;;;;5.55;3.55;;;;;;;;;;5024392;28;20056;-76
2022/02/10 04:24:41;;;;;;;5.38;4.43;;;;;;;;;;5028105;28;20029;-76
2022/02/10 04:43:30;;;;;;;6.07;4.40;;;;;;;;;;5004282;28;20045;-76
2022/02/10 05:17:38;;;;;;;4.85;3.53;;;;;;;;;;5031907;28;20029;-77
2022/02/10 05:35:38;;;;;;;5.22;3.58;;;;;;;;;;4998222;28;20412;-77
2022/02/10 05:43:40;;;;;;;5.05;3.53;;;;;;;;;;5003436;28;20037;-77
2022/02/10 05:46:48;;;;;;;5.65;3.95;;;;;;;;;;5032215;28;20184;-77
2022/02/10 05:49:57;;;;;;;6.88;4.25;;;;;;;;;;5031725;28;20127;-76
2022/02/10 06:45:21;;;;;;;7.63;4.95;;;;;;;;;;5006441;28;20075;-77
2022/02/10 06:51:22;;;;;;;8.38;4.47;;;;;;;;;;5030686;28;20056;-76
2022/02/10 08:50:24;;;;;;;9.85;4.47;;;;;;;;;;5021153;28;20033;-73
2022/02/10 09:04:06;;;;;;;8.18;4.47;;;;;;;;;;5016486;28;20506;-73
2022/02/10 09:19:16;;;;;;;12.95;4.78;;;;;;;;;;5031243;28;20041;-73
2022/02/10 10:01:44;;;;;;;6.72;3.88;;;;;;;;;;5032388;28;20036;-73
2022/02/10 10:04:33;;;;;;;9.05;3.95;;;;;;;;;;5017134;28;20406;-73
2022/02/10 10:10:16;;;;;;;6.97;3.63;;;;;;;;;;5010993;28;20033;-73
2022/02/10 10:21:11;;;;;;;10.05;3.80;;;;;;;;;;5011929;28;20084;-73
2022/02/10 10:24:40;;;;;;;10.65;3.33;;;;;;;;;;5008972;28;20117;-74
2022/02/10 10:27:10;;;;;;;10.05;3.67;;;;;;;;;;5009705;28;20542;-73
2022/02/10 10:49:43;;;;;;;;;;;;;;;;;;5013634;28;20088;-74
2022/02/10 10:54:49;;;;;;;6.40;3.28;;;;;;;;;;4999729;28;20408;-73
2022/02/10 10:57:24;;;;;;;7.75;2.47;;;;;;;;;;5010308;28;20040;-73
2022/02/10 11:00:13;;;;;;;14.02;3.75;;;;;;;;;;5017768;28;20048;-73
2022/02/10 11:39:08;;;;;;;4.05;2.65;;;;;;;;;;5025018;28;20491;-75
2022/02/10 11:41:55;;;;;;;9.80;3.40;;;;;;;;;;5027236;28;20398;-76
2022/02/10 11:44:45;;;;;;;7.07;3.70;;;;;;;;;;5015512;28;20416;-76
2022/02/10 14:09:02;;;;;;;36.88;23.38;;;;;;;;;;5016132;28;20511;-79
2022/02/10 14:14:26;;;;;;;25.67;16.42;;;;;;;;;;5030310;28;20241;-78
2022/02/10 14:17:03;;;;;;;21.98;14.80;;;;;;;;;;5015322;28;20037;-77
2022/02/10 14:19:37;;;;;;;22.15;14.82;;;;;;;;;;5000875;28;20046;-78
2022/02/10 14:22:21;;;;;;;21.92;14.65;;;;;;;;;;5017046;28;20037;-77
2022/02/10 14:27:30;;;;;;;20.85;13.68;;;;;;;;;;5016865;28;20049;-77
2022/02/10 14:29:56;;;;;;;21.48;13.95;;;;;;;;;;5029372;28;20419;-78
2022/02/10 14:32:26;;;;;;;22.23;13.02;;;;;;;;;;4989724;28;20037;-78
2022/02/10 14:34:55;;;;;;;22.10;13.73;;;;;;;;;;4980282;28;20116;-78
2022/02/10 14:37:49;;;;;;;20.63;12.18;;;;;;;;;;4996166;28;20037;-78
2022/02/10 15:32:37;;;;;;;9.77;6.60;;;;;;;;;;5013462;28;20510;-77
2022/02/10 16:19:07;;;;;;;13.75;6.30;;;;;;;;;;5018018;28;20052;-77
2022/02/10 16:21:41;;;;;;;11.85;6.30;;;;;;;;;;4983851;28;20029;-77
2022/02/10 16:24:16;;;;;;;11.63;6.45;;;;;;;;;;5021405;28;20068;-78
2022/02/10 16:26:54;;;;;;;11.07;6.10;;;;;;;;;;5008504;28;20034;-77
2022/02/10 16:29:21;;;;;;;10.95;6.18;;;;;;;;;;5016175;28;20046;-77
2022/02/10 16:31:46;;;;;;;26.83;15.27;;;;;;;;;;5015853;28;20092;-77
2022/02/10 16:34:12;;;;;;;29.75;18.23;;;;;;;;;;4982736;28;20388;-77
2022/02/10 16:36:39;;;;;;;29.92;16.85;;;;;;;;;;5005483;28;20033;-77
2022/02/10 16:39:04;;;;;;;22.10;14.98;;;;;;;;;;5014294;28;20045;-77
2022/02/10 16:41:30;;;;;;;26.50;15.18;;;;;;;;;;5010469;28;20383;-77
2022/02/10 16:43:55;;;;;;;24.85;15.48;;;;;;;;;;5028249;28;20055;-76
2022/02/10 16:46:22;;;;;;;21.55;12.20;;;;;;;;;;5017139;28;20160;-77
2022/02/10 16:48:47;;;;;;;23.02;13.88;;;;;;;;;;5016082;28;20047;-77
2022/02/10 16:51:13;;;;;;;20.45;11.25;;;;;;;;;;5015490;28;20033;-77
2022/02/10 16:53:42;;;;;;;18.20;10.75;;;;;;;;;;4998046;28;20063;-76
2022/02/10 16:56:13;;;;;;;18.58;9.45;;;;;;;;;;5002903;28;20037;-77
2022/02/10 16:59:02;;;;;;;18.33;9.43;;;;;;;;;;4979563;28;20037;-77
2022/02/10 17:01:43;;;;;;;16.30;9.07;;;;;;;;;;5032747;28;20112;-77
2022/02/10 17:25:45;;;;;;;13.02;6.78;;;;;;;;;;5029628;28;20041;-77
2022/02/10 17:28:11;;;;;;;13.20;6.50;;;;;;;;;;5038890;28;20044;-77
2022/02/10 17:36:07;;;;;;;12.40;6.72;;;;;;;;;;5011995;28;20443;-79
2022/02/10 17:51:26;;;;;;;13.80;6.35;;;;;;;;;;5021884;28;20025;-80
2022/02/10 17:54:33;;;;;;;10.77;6.05;;;;;;;;;;5005891;28;20029;-79
2022/02/10 17:56:59;;;;;;;8.30;4.68;;;;;;;;;;4981963;28;20400;-81
2022/02/10 17:59:25;;;;;;;8.82;4.53;;;;;;;;;;4975582;28;20041;-79
2022/02/10 18:01:50;;;;;;;7.53;4.43;;;;;;;;;;4984906;28;20434;-80
2022/02/10 18:04:17;;;;;;;7.10;4.13;;;;;;;;;;5000810;28;20042;-83
2022/02/10 18:06:45;;;;;;;6.95;3.65;;;;;;;;;;4984817;28;20051;-81
2022/02/10 18:19:34;;;;;;;11.65;3.97;;;;;;;;;;5013409;28;20029;-82
2022/02/10 18:27:25;;;;;;;9.23;4.07;;;;;;;;;;5029922;28;20029;-77
2022/02/10 18:30:14;;;;;;;11.27;3.45;;;;;;;;;;5025424;28;20080;-77
2022/02/10 19:07:22;;;;;;;9.55;3.50;;;;;;;;;;5001435;28;20168;-76
2022/02/10 19:09:49;;;;;;;6.40;3.00;;;;;;;;;;5014366;28;20041;-77
2022/02/10 19:14:51;;;;;;;8.10;2.65;;;;;;;;;;5004455;28;20499;-76
2022/02/10 19:17:17;;;;;;;7.47;2.75;;;;;;;;;;5032377;28;20029;-76
2022/02/10 19:19:42;;;;;;;5.85;2.30;;;;;;;;;;5017843;28;20456;-76
2022/02/10 19:22:08;;;;;;;7.47;2.60;;;;;;;;;;5013103;28;20408;-76
2022/02/10 19:24:33;;;;;;;6.70;2.25;;;;;;;;;;5015178;28;20091;-76
2022/02/10 19:26:59;;;;;;;5.50;2.13;;;;;;;;;;5012767;28;20541;-77
2022/02/10 19:29:24;;;;;;;7.55;2.53;;;;;;;;;;5031755;28;20041;-75
2022/02/10 19:31:51;;;;;;;9.75;2.13;;;;;;;;;;5035736;28;20388;-76
2022/02/10 19:34:17;;;;;;;5.70;2.28;;;;;;;;;;5023060;28;20099;-75
2022/02/10 19:36:42;;;;;;;5.15;1.95;;;;;;;;;;5015024;28;20484;-76
2022/02/10 19:39:09;;;;;;;5.78;2.55;;;;;;;;;;5016741;28;20678;-75
2022/02/10 19:41:35;;;;;;;5.45;1.90;;;;;;;;;;5018552;28;20037;-76
2022/02/10 19:44:02;;;;;;;6.45;2.00;;;;;;;;;;5015801;28;20041;-76
2022/02/10 19:46:28;;;;;;;5.47;2.17;;;;;;;;;;5005574;28;20404;-76
2022/02/10 19:48:54;;;;;;;6.03;2.22;;;;;;;;;;5016394;28;20044;-76
2022/02/10 19:51:19;;;;;;;4.63;1.88;;;;;;;;;;5019371;28;20864;-76
2022/02/10 19:53:45;;;;;;;7.22;2.05;;;;;;;;;;5035184;28;20079;-76
2022/02/10 19:56:13;;;;;;;3.83;1.75;;;;;;;;;;5003518;28;20426;-76
2022/02/10 19:58:39;;;;;;;6.00;1.80;;;;;;;;;;5020447;28;20040;-75
2022/02/10 20:01:05;;;;;;;6.32;2.03;;;;;;;;;;5020104;28;20037;-76
2022/02/10 20:03:33;;;;;;;4.60;1.92;;;;;;;;;;5019640;28;20055;-76
2022/02/10 20:06:00;;;;;;;4.85;1.80;;;;;;;;;;5004101;28;20033;-76
2022/02/10 20:08:26;;;;;;;4.63;1.50;;;;;;;;;;5037006;28;20041;-75
2022/02/10 20:10:54;;;;;;;5.97;1.75;;;;;;;;;;5002812;28;20116;-76
2022/02/10 20:13:21;;;;;;;5.20;3.13;;;;;;;;;;5003799;28;20045;-75
2022/02/10 20:15:47;;;;;;;11.60;7.45;;;;;;;;;;5020029;28;20425;-76
2022/02/10 20:18:14;;;;;;;18.80;11.77;;;;;;;;;;5020009;28;20033;-75
2022/02/10 20:20:45;;;;;;;18.27;11.57;;;;;;;;;;5022197;28;20153;-76
2022/02/10 20:23:11;;;;;;;16.50;11.30;;;;;;;;;;5016631;28;20112;-76
2022/02/10 20:25:37;;;;;;;16.70;10.25;;;;;;;;;;5014621;28;20109;-76
2022/02/10 20:28:03;;;;;;;15.75;11.40;;;;;;;;;;5019467;28;20045;-76
2022/02/10 20:30:28;;;;;;;14.50;10.00;;;;;;;;;;4999771;28;20041;-77
2022/02/10 20:32:54;;;;;;;14.95;10.32;;;;;;;;;;5004414;28;20080;-76
2022/02/10 20:35:20;;;;;;;15.52;9.15;;;;;;;;;;5018636;28;20129;-76
2022/02/10 20:37:45;;;;;;;14.80;10.10;;;;;;;;;;5022733;28;20037;-76
2022/02/10 20:40:12;;;;;;;13.85;8.25;;;;;;;;;;4993258;28;20041;-76
2022/02/10 20:42:38;;;;;;;13.13;9.00;;;;;;;;;;5035644;28;20063;-77
2022/02/10 20:45:05;;;;;;;14.23;9.30;;;;;;;;;;5002638;28;20037;-76
2022/02/10 20:47:30;;;;;;;12.80;8.32;;;;;;;;;;5003996;28;20043;-76
2022/02/10 20:49:56;;;;;;;12.93;9.27;;;;;;;;;;5027152;28;20033;-76
2022/02/10 20:52:21;;;;;;;13.35;7.75;;;;;;;;;;5027470;28;20037;-76
2022/02/10 20:54:47;;;;;;;12.25;7.60;;;;;;;;;;5001855;28;20082;-76
2022/02/10 20:57:13;;;;;;;12.60;8.02;;;;;;;;;;5018951;28;20131;-76
2022/02/10 20:59:41;;;;;;;11.10;7.82;;;;;;;;;;5018552;28;20029;-76
2022/02/10 21:04:37;;;;;;;11.52;7.55;;;;;;;;;;5018386;28;20082;-76
2022/02/10 21:07:13;;;;;;;13.57;7.22;;;;;;;;;;5002675;28;20040;-76
2022/02/10 21:12:07;;;;;;;9.75;6.80;;;;;;;;;;5018361;28;20136;-76
2022/02/10 21:14:33;;;;;;;10.90;6.78;;;;;;;;;;5019268;28;20491;-76
2022/02/10 21:17:05;;;;;;;11.68;6.45;;;;;;;;;;5001846;28;20040;-76
2022/02/10 21:19:30;;;;;;;;;;;;;;;;;;5004411;28;20443;-77
2022/02/10 21:21:56;;;;;;;10.70;6.35;;;;;;;;;;5052416;28;19974;-76
2022/02/10 21:24:27;;;;;;;8.80;5.40;;;;;;;;;;5018200;28;20095;-76
2022/02/10 21:27:18;;;;;;;9.13;5.37;;;;;;;;;;5018740;28;20029;-76
2022/02/10 21:29:39;;;;;;;8.13;5.72;;;;;;;;;;5036640;28;20029;-76
2022/02/10 21:32:05;;;;;;;8.18;5.47;;;;;;;;;;5002041;28;20407;-76
2022/02/10 21:34:35;;;;;;;11.40;5.93;;;;;;;;;;5001691;28;20486;-76
2022/02/10 21:37:08;;;;;;;9.98;5.45;;;;;;;;;;5018936;28;20124;-76
2022/02/10 21:45:20;;;;;;;7.72;4.75;;;;;;;;;;5012807;28;20068;-76
2022/02/10 21:54:31;;;;;;;7.20;4.45;;;;;;;;;;5010216;28;20029;-76
2022/02/10 22:02:18;;;;;;;6.28;4.00;;;;;;;;;;5036437;28;20047;-75
2022/02/10 22:07:20;;;;;;;8.30;5.20;;;;;;;;;;5031660;28;20104;-75
2022/02/10 22:20:16;;;;;;;6.22;3.20;;;;;;;;;;5017808;28;20526;-75
2022/02/10 22:23:03;;;;;;;5.72;2.90;;;;;;;;;;4999525;28;20100;-75
2022/02/10 22:25:27;;;;;;;5.30;2.97;;;;;;;;;;5030113;28;20079;-75
2022/02/10 22:27:54;;;;;;;5.38;3.55;;;;;;;;;;5031860;28;20497;-75
2022/02/10 22:30:38;;;;;;;6.75;3.25;;;;;;;;;;5016931;28;20159;-75
2022/02/10 22:35:50;;;;;;;5.30;2.65;;;;;;;;;;5023780;28;20037;-75
2022/02/10 22:38:15;;;;;;;5.05;3.22;;;;;;;;;;5032236;28;20056;-74
2022/02/10 22:40:58;;;;;;;4.85;3.10;;;;;;;;;;5033202;28;20041;-75
2022/02/10 22:43:23;;;;;;;4.63;3.03;;;;;;;;;;5005809;28;20427;-75
2022/02/10 22:45:49;;;;;;;5.70;2.85;;;;;;;;;;5030771;28;20033;-75
2022/02/10 22:48:14;;;;;;;4.82;2.50;;;;;;;;;;5023837;28;20762;-75
2022/02/10 22:50:39;;;;;;;5.25;2.40;;;;;;;;;;5017894;28;20427;-75
2022/02/10 22:53:05;;;;;;;4.93;2.85;;;;;;;;;;5016292;28;20396;-75
2022/02/10 22:55:31;;;;;;;4.13;1.98;;;;;;;;;;5016648;28;20422;-75
2022/02/10 22:57:57;;;;;;;4.75;2.42;;;;;;;;;;5001106;28;20557;-75
2022/02/10 23:00:30;;;;;;;5.47;2.75;;;;;;;;;;5014351;28;20083;-75
2022/02/10 23:02:55;;;;;;;4.05;2.35;;;;;;;;;;4998322;28;20037;-75
2022/02/10 23:05:23;;;;;;;4.35;2.28;;;;;;;;;;5032278;28;20124;-75
2022/02/10 23:07:54;;;;;;;4.72;2.38;;;;;;;;;;5034580;28;20061;-75
2022/02/10 23:12:45;;;;;;;4.20;2.30;;;;;;;;;;5020097;28;20131;-75
2022/02/10 23:15:11;;;;;;;3.92;1.98;;;;;;;;;;5020639;28;20039;-75
2022/02/10 23:17:39;;;;;;;4.18;2.00;;;;;;;;;;4992697;28;20381;-75
2022/02/10 23:20:05;;;;;;;4.45;2.30;;;;;;;;;;5018009;28;20041;-75
2022/02/10 23:22:30;;;;;;;3.80;1.95;;;;;;;;;;5020011;28;20407;-75
2022/02/10 23:24:56;;;;;;;4.20;1.95;;;;;;;;;;5053891;28;20041;-75
2022/02/10 23:27:21;;;;;;;5.00;2.17;;;;;;;;;;4984862;28;20029;-75
2022/02/10 23:29:48;;;;;;;4.47;2.25;;;;;;;;;;5033158;28;20114;-75
2022/02/10 23:32:13;;;;;;;4.25;2.03;;;;;;;;;;5003158;28;20041;-75
2022/02/10 23:34:39;;;;;;;4.45;1.92;;;;;;;;;;5036777;28;20095;-74
2022/02/10 23:37:04;;;;;;;3.88;1.83;;;;;;;;;;5018003;28;20120;-74
2022/02/10 23:39:34;;;;;;;4.13;1.75;;;;;;;;;;5029175;28;20048;-75
2022/02/10 23:42:25;;;;;;;4.15;1.88;;;;;;;;;;5020480;28;20072;-75
2022/02/10 23:44:51;;;;;;;3.45;1.80;;;;;;;;;;5007471;28;20045;-75
2022/02/10 23:47:20;;;;;;;3.50;1.77;;;;;;;;;;5036311;28;20526;-74
2022/02/10 23:49:46;;;;;;;4.38;1.83;;;;;;;;;;5011033;28;20136;-75
2022/02/10 23:52:15;;;;;;;2.75;1.65;;;;;;;;;;5041304;28;20041;-74
2022/02/10 23:54:41;;;;;;;3.45;1.70;;;;;;;;;;5011913;28;20048;-75
2022/02/10 23:57:15;;;;;;;3.63;1.95;;;;;;;;;;5018383;28;20029;-75
